sensor_id;sensor_type;location;lat;lon;timestamp;P1;durP1;ratioP1;P2;durP2;ratioP2
22660;SDS011;11497;52.222;21.246;2024-02-26T00:00:04;49.95;;;27.80;;
22660;SDS011;11497;52.222;21.246;2024-02-26T00:02:37;54.42;;;29.13;;
22660;SDS011;11497;52.222;21.246;2024-02-26T00:05:07;54.63;;;29.60;;
22660;SDS011;11497;52.222;21.246;2024-02-26T00:07:35;57.90;;;30.48;;
22660;SDS011;11497;52.222;21.246;2024-02-26T00:10:03;62.20;;;35.25;;
22660;SDS011;11497;52.222;21.246;2024-02-26T00:12:32;66.57;;;33.13;;
22660;SDS011;11497;52.222;21.246;2024-02-26T00:15:00;59.30;;;31.98;;
22660;SDS011;11497;52.222;21.246;2024-02-26T00:17:28;70.32;;;36.45;;
22660;SDS011;11497;52.222;21.246;2024-02-26T00:19:56;56.00;;;31.08;;
22660;SDS011;11497;52.222;21.246;2024-02-26T00:22:24;65.07;;;33.42;;
22660;SDS011;11497;52.222;21.246;2024-02-26T00:24:52;58.50;;;30.60;;
22660;SDS011;11497;52.222;21.246;2024-02-26T00:27:20;55.22;;;29.85;;
22660;SDS011;11497;52.222;21.246;2024-02-26T00:29:48;76.32;;;35.33;;
22660;SDS011;11497;52.222;21.246;2024-02-26T00:32:16;65.43;;;34.55;;
22660;SDS011;11497;52.222;21.246;2024-02-26T00:34:45;60.53;;;31.27;;
22660;SDS011;11497;52.222;21.246;2024-02-26T00:37:13;55.20;;;30.45;;
22660;SDS011;11497;52.222;21.246;2024-02-26T00:39:41;58.42;;;31.35;;
22660;SDS011;11497;52.222;21.246;2024-02-26T00:42:09;51.42;;;29.02;;
22660;SDS011;11497;52.222;21.246;2024-02-26T00:44:37;58.15;;;29.40;;
22660;SDS011;11497;52.222;21.246;2024-02-26T00:47:05;52.45;;;27.98;;
22660;SDS011;11497;52.222;21.246;2024-02-26T00:49:33;53.70;;;27.60;;
22660;SDS011;11497;52.222;21.246;2024-02-26T00:52:01;55.17;;;28.65;;
22660;SDS011;11497;52.222;21.246;2024-02-26T00:54:30;52.95;;;28.27;;
22660;SDS011;11497;52.222;21.246;2024-02-26T00:56:58;50.88;;;27.23;;
22660;SDS011;11497;52.222;21.246;2024-02-26T00:59:26;48.83;;;28.05;;
22660;SDS011;11497;52.222;21.246;2024-02-26T01:01:54;50.15;;;28.23;;
22660;SDS011;11497;52.222;21.246;2024-02-26T01:04:22;48.25;;;26.60;;
22660;SDS011;11497;52.222;21.246;2024-02-26T01:06:50;53.33;;;27.25;;
22660;SDS011;11497;52.222;21.246;2024-02-26T01:09:18;47.92;;;26.50;;
22660;SDS011;11497;52.222;21.246;2024-02-26T01:11:46;52.42;;;28.30;;
22660;SDS011;11497;52.222;21.246;2024-02-26T01:14:14;52.10;;;28.35;;
22660;SDS011;11497;52.222;21.246;2024-02-26T01:16:42;54.80;;;29.40;;
22660;SDS011;11497;52.222;21.246;2024-02-26T01:19:10;54.40;;;28.02;;
22660;SDS011;11497;52.222;21.246;2024-02-26T01:21:38;53.13;;;27.58;;
22660;SDS011;11497;52.222;21.246;2024-02-26T01:24:06;52.60;;;27.92;;
22660;SDS011;11497;52.222;21.246;2024-02-26T01:26:35;56.65;;;27.90;;
22660;SDS011;11497;52.222;21.246;2024-02-26T01:29:04;53.20;;;28.00;;
22660;SDS011;11497;52.222;21.246;2024-02-26T01:31:32;53.72;;;29.30;;
22660;SDS011;11497;52.222;21.246;2024-02-26T01:34:00;58.55;;;29.10;;
22660;SDS011;11497;52.222;21.246;2024-02-26T01:36:29;53.78;;;29.20;;
22660;SDS011;11497;52.222;21.246;2024-02-26T01:38:56;54.30;;;30.52;;
22660;SDS011;11497;52.222;21.246;2024-02-26T01:41:25;58.42;;;30.77;;
22660;SDS011;11497;52.222;21.246;2024-02-26T01:43:53;61.63;;;33.00;;
22660;SDS011;11497;52.222;21.246;2024-02-26T01:46:21;55.20;;;30.00;;
22660;SDS011;11497;52.222;21.246;2024-02-26T01:48:49;60.13;;;30.70;;
22660;SDS011;11497;52.222;21.246;2024-02-26T01:51:17;63.63;;;30.48;;
22660;SDS011;11497;52.222;21.246;2024-02-26T01:53:46;57.88;;;29.23;;
22660;SDS011;11497;52.222;21.246;2024-02-26T01:56:14;54.80;;;28.65;;
22660;SDS011;11497;52.222;21.246;2024-02-26T01:58:44;57.70;;;30.60;;
22660;SDS011;11497;52.222;21.246;2024-02-26T02:01:12;48.20;;;27.25;;
22660;SDS011;11497;52.222;21.246;2024-02-26T02:03:42;55.20;;;29.05;;
22660;SDS011;11497;52.222;21.246;2024-02-26T02:06:12;54.53;;;28.63;;
22660;SDS011;11497;52.222;21.246;2024-02-26T02:08:40;57.00;;;28.33;;
22660;SDS011;11497;52.222;21.246;2024-02-26T02:11:09;55.45;;;29.27;;
22660;SDS011;11497;52.222;21.246;2024-02-26T02:13:38;56.28;;;29.27;;
22660;SDS011;11497;52.222;21.246;2024-02-26T02:16:06;52.90;;;28.30;;
22660;SDS011;11497;52.222;21.246;2024-02-26T02:18:34;51.53;;;27.65;;
22660;SDS011;11497;52.222;21.246;2024-02-26T02:21:03;55.83;;;28.73;;
22660;SDS011;11497;52.222;21.246;2024-02-26T02:23:31;61.47;;;29.52;;
22660;SDS011;11497;52.222;21.246;2024-02-26T02:25:59;58.00;;;29.38;;
22660;SDS011;11497;52.222;21.246;2024-02-26T02:28:27;60.13;;;28.77;;
22660;SDS011;11497;52.222;21.246;2024-02-26T02:30:55;62.08;;;29.15;;
22660;SDS011;11497;52.222;21.246;2024-02-26T02:33:26;56.97;;;29.38;;
22660;SDS011;11497;52.222;21.246;2024-02-26T02:35:54;57.20;;;28.25;;
22660;SDS011;11497;52.222;21.246;2024-02-26T02:38:22;53.45;;;28.45;;
22660;SDS011;11497;52.222;21.246;2024-02-26T02:40:53;59.67;;;30.02;;
22660;SDS011;11497;52.222;21.246;2024-02-26T02:43:20;52.58;;;29.52;;
22660;SDS011;11497;52.222;21.246;2024-02-26T02:45:49;55.40;;;28.83;;
22660;SDS011;11497;52.222;21.246;2024-02-26T02:48:16;53.80;;;30.00;;
22660;SDS011;11497;52.222;21.246;2024-02-26T02:50:45;56.15;;;30.20;;
22660;SDS011;11497;52.222;21.246;2024-02-26T02:53:13;56.78;;;29.90;;
22660;SDS011;11497;52.222;21.246;2024-02-26T02:55:43;56.78;;;29.67;;
22660;SDS011;11497;52.222;21.246;2024-02-26T02:58:10;58.20;;;29.65;;
22660;SDS011;11497;52.222;21.246;2024-02-26T03:00:38;59.28;;;29.33;;
22660;SDS011;11497;52.222;21.246;2024-02-26T03:03:06;63.25;;;30.30;;
22660;SDS011;11497;52.222;21.246;2024-02-26T03:05:36;57.25;;;29.00;;
22660;SDS011;11497;52.222;21.246;2024-02-26T03:08:04;59.17;;;28.48;;
22660;SDS011;11497;52.222;21.246;2024-02-26T03:10:33;56.60;;;28.65;;
22660;SDS011;11497;52.222;21.246;2024-02-26T03:13:01;51.25;;;27.98;;
22660;SDS011;11497;52.222;21.246;2024-02-26T03:15:29;50.10;;;26.17;;
22660;SDS011;11497;52.222;21.246;2024-02-26T03:17:57;52.10;;;27.83;;
22660;SDS011;11497;52.222;21.246;2024-02-26T03:20:26;58.83;;;30.38;;
22660;SDS011;11497;52.222;21.246;2024-02-26T03:22:53;59.58;;;30.63;;
22660;SDS011;11497;52.222;21.246;2024-02-26T03:25:23;58.20;;;29.27;;
22660;SDS011;11497;52.222;21.246;2024-02-26T03:27:51;54.58;;;27.88;;
22660;SDS011;11497;52.222;21.246;2024-02-26T03:30:19;48.85;;;26.92;;
22660;SDS011;11497;52.222;21.246;2024-02-26T03:32:47;53.35;;;27.77;;
22660;SDS011;11497;52.222;21.246;2024-02-26T03:35:16;59.15;;;28.60;;
22660;SDS011;11497;52.222;21.246;2024-02-26T03:37:45;54.97;;;28.23;;
22660;SDS011;11497;52.222;21.246;2024-02-26T03:40:14;54.15;;;28.08;;
22660;SDS011;11497;52.222;21.246;2024-02-26T03:42:42;56.80;;;27.35;;
22660;SDS011;11497;52.222;21.246;2024-02-26T03:45:10;60.45;;;29.30;;
22660;SDS011;11497;52.222;21.246;2024-02-26T03:47:38;62.70;;;28.90;;
22660;SDS011;11497;52.222;21.246;2024-02-26T03:50:07;55.65;;;28.30;;
22660;SDS011;11497;52.222;21.246;2024-02-26T03:52:36;53.72;;;27.08;;
22660;SDS011;11497;52.222;21.246;2024-02-26T03:55:04;48.33;;;25.58;;
22660;SDS011;11497;52.222;21.246;2024-02-26T03:57:32;54.35;;;28.10;;
22660;SDS011;11497;52.222;21.246;2024-02-26T04:00:00;55.90;;;27.83;;
22660;SDS011;11497;52.222;21.246;2024-02-26T04:02:36;55.60;;;27.38;;
22660;SDS011;11497;52.222;21.246;2024-02-26T04:05:04;57.67;;;27.95;;
22660;SDS011;11497;52.222;21.246;2024-02-26T04:07:35;52.13;;;26.73;;
22660;SDS011;11497;52.222;21.246;2024-02-26T04:10:08;56.00;;;27.20;;
22660;SDS011;11497;52.222;21.246;2024-02-26T04:12:39;61.42;;;30.52;;
22660;SDS011;11497;52.222;21.246;2024-02-26T04:15:10;48.67;;;26.02;;
22660;SDS011;11497;52.222;21.246;2024-02-26T04:17:39;55.53;;;27.80;;
22660;SDS011;11497;52.222;21.246;2024-02-26T04:20:12;54.00;;;27.65;;
22660;SDS011;11497;52.222;21.246;2024-02-26T04:22:42;54.25;;;27.13;;
22660;SDS011;11497;52.222;21.246;2024-02-26T04:25:11;56.10;;;27.98;;
22660;SDS011;11497;52.222;21.246;2024-02-26T04:27:39;59.80;;;27.75;;
22660;SDS011;11497;52.222;21.246;2024-02-26T04:30:07;58.95;;;28.85;;
22660;SDS011;11497;52.222;21.246;2024-02-26T04:32:36;57.05;;;27.35;;
22660;SDS011;11497;52.222;21.246;2024-02-26T04:35:04;54.92;;;27.35;;
22660;SDS011;11497;52.222;21.246;2024-02-26T04:37:32;58.15;;;29.20;;
22660;SDS011;11497;52.222;21.246;2024-02-26T04:40:00;54.35;;;28.67;;
22660;SDS011;11497;52.222;21.246;2024-02-26T04:42:29;60.50;;;28.75;;
22660;SDS011;11497;52.222;21.246;2024-02-26T04:44:57;56.92;;;27.58;;
22660;SDS011;11497;52.222;21.246;2024-02-26T04:47:25;58.60;;;29.42;;
22660;SDS011;11497;52.222;21.246;2024-02-26T04:49:53;54.42;;;27.25;;
22660;SDS011;11497;52.222;21.246;2024-02-26T04:52:21;62.13;;;27.90;;
22660;SDS011;11497;52.222;21.246;2024-02-26T04:54:49;60.63;;;29.38;;
22660;SDS011;11497;52.222;21.246;2024-02-26T04:57:18;60.10;;;28.58;;
22660;SDS011;11497;52.222;21.246;2024-02-26T04:59:46;57.67;;;29.30;;
22660;SDS011;11497;52.222;21.246;2024-02-26T05:02:14;57.00;;;27.67;;
22660;SDS011;11497;52.222;21.246;2024-02-26T05:04:43;55.15;;;29.27;;
22660;SDS011;11497;52.222;21.246;2024-02-26T05:07:11;62.40;;;29.63;;
22660;SDS011;11497;52.222;21.246;2024-02-26T05:09:40;63.78;;;29.90;;
22660;SDS011;11497;52.222;21.246;2024-02-26T05:12:09;67.55;;;33.67;;
22660;SDS011;11497;52.222;21.246;2024-02-26T05:14:37;66.03;;;32.75;;
22660;SDS011;11497;52.222;21.246;2024-02-26T05:17:05;67.88;;;32.72;;
22660;SDS011;11497;52.222;21.246;2024-02-26T05:19:33;62.45;;;31.30;;
22660;SDS011;11497;52.222;21.246;2024-02-26T05:22:01;63.25;;;31.67;;
22660;SDS011;11497;52.222;21.246;2024-02-26T05:24:29;65.28;;;30.35;;
22660;SDS011;11497;52.222;21.246;2024-02-26T05:26:59;61.70;;;30.52;;
22660;SDS011;11497;52.222;21.246;2024-02-26T05:29:27;72.80;;;36.95;;
22660;SDS011;11497;52.222;21.246;2024-02-26T05:31:55;71.20;;;34.17;;
22660;SDS011;11497;52.222;21.246;2024-02-26T05:34:23;70.53;;;34.45;;
22660;SDS011;11497;52.222;21.246;2024-02-26T05:36:51;169.63;;;68.15;;
22660;SDS011;11497;52.222;21.246;2024-02-26T05:39:19;304.08;;;117.13;;
22660;SDS011;11497;52.222;21.246;2024-02-26T05:41:47;207.48;;;82.97;;
22660;SDS011;11497;52.222;21.246;2024-02-26T05:44:16;166.43;;;68.65;;
22660;SDS011;11497;52.222;21.246;2024-02-26T05:46:44;133.15;;;58.05;;
22660;SDS011;11497;52.222;21.246;2024-02-26T05:49:12;125.43;;;55.75;;
22660;SDS011;11497;52.222;21.246;2024-02-26T05:51:40;166.35;;;69.30;;
22660;SDS011;11497;52.222;21.246;2024-02-26T05:54:08;135.32;;;61.35;;
22660;SDS011;11497;52.222;21.246;2024-02-26T05:56:37;124.90;;;56.95;;
22660;SDS011;11497;52.222;21.246;2024-02-26T05:59:05;121.57;;;55.92;;
22660;SDS011;11497;52.222;21.246;2024-02-26T06:01:33;126.07;;;58.42;;
22660;SDS011;11497;52.222;21.246;2024-02-26T06:04:02;118.72;;;57.60;;
22660;SDS011;11497;52.222;21.246;2024-02-26T06:06:30;126.10;;;58.28;;
22660;SDS011;11497;52.222;21.246;2024-02-26T06:08:59;117.57;;;56.30;;
22660;SDS011;11497;52.222;21.246;2024-02-26T06:11:27;104.15;;;53.00;;
22660;SDS011;11497;52.222;21.246;2024-02-26T06:13:55;97.50;;;47.85;;
22660;SDS011;11497;52.222;21.246;2024-02-26T06:16:26;80.70;;;39.83;;
22660;SDS011;11497;52.222;21.246;2024-02-26T06:18:54;76.53;;;39.83;;
22660;SDS011;11497;52.222;21.246;2024-02-26T06:21:23;71.03;;;37.10;;
22660;SDS011;11497;52.222;21.246;2024-02-26T06:23:51;62.13;;;35.03;;
22660;SDS011;11497;52.222;21.246;2024-02-26T06:26:20;72.18;;;34.85;;
22660;SDS011;11497;52.222;21.246;2024-02-26T06:28:48;67.55;;;33.92;;
22660;SDS011;11497;52.222;21.246;2024-02-26T06:31:15;75.63;;;36.58;;
22660;SDS011;11497;52.222;21.246;2024-02-26T06:33:45;79.90;;;39.22;;
22660;SDS011;11497;52.222;21.246;2024-02-26T06:36:13;79.95;;;40.17;;
22660;SDS011;11497;52.222;21.246;2024-02-26T06:38:45;79.10;;;37.20;;
22660;SDS011;11497;52.222;21.246;2024-02-26T06:41:13;75.38;;;36.88;;
22660;SDS011;11497;52.222;21.246;2024-02-26T06:43:41;75.38;;;39.55;;
22660;SDS011;11497;52.222;21.246;2024-02-26T06:46:09;70.03;;;37.80;;
22660;SDS011;11497;52.222;21.246;2024-02-26T06:48:37;75.05;;;37.47;;
22660;SDS011;11497;52.222;21.246;2024-02-26T06:51:05;69.68;;;37.42;;
22660;SDS011;11497;52.222;21.246;2024-02-26T06:53:33;67.32;;;37.83;;
22660;SDS011;11497;52.222;21.246;2024-02-26T06:56:01;63.17;;;32.65;;
22660;SDS011;11497;52.222;21.246;2024-02-26T06:58:30;60.97;;;32.72;;
22660;SDS011;11497;52.222;21.246;2024-02-26T07:00:58;52.80;;;30.13;;
22660;SDS011;11497;52.222;21.246;2024-02-26T07:03:27;49.35;;;28.65;;
22660;SDS011;11497;52.222;21.246;2024-02-26T07:05:56;48.08;;;29.40;;
22660;SDS011;11497;52.222;21.246;2024-02-26T07:08:25;54.10;;;28.90;;
22660;SDS011;11497;52.222;21.246;2024-02-26T07:10:53;50.00;;;28.42;;
22660;SDS011;11497;52.222;21.246;2024-02-26T07:13:21;49.42;;;27.33;;
22660;SDS011;11497;52.222;21.246;2024-02-26T07:15:49;44.40;;;26.40;;
22660;SDS011;11497;52.222;21.246;2024-02-26T07:18:17;42.38;;;26.23;;
22660;SDS011;11497;52.222;21.246;2024-02-26T07:20:45;39.75;;;25.83;;
22660;SDS011;11497;52.222;21.246;2024-02-26T07:23:13;45.42;;;26.75;;
22660;SDS011;11497;52.222;21.246;2024-02-26T07:25:41;40.22;;;25.30;;
22660;SDS011;11497;52.222;21.246;2024-02-26T07:28:14;41.08;;;25.88;;
22660;SDS011;11497;52.222;21.246;2024-02-26T07:30:42;38.08;;;25.60;;
22660;SDS011;11497;52.222;21.246;2024-02-26T07:33:10;37.70;;;23.45;;
22660;SDS011;11497;52.222;21.246;2024-02-26T07:35:38;34.92;;;23.30;;
22660;SDS011;11497;52.222;21.246;2024-02-26T07:38:07;36.03;;;22.92;;
22660;SDS011;11497;52.222;21.246;2024-02-26T07:40:48;37.63;;;23.75;;
22660;SDS011;11497;52.222;21.246;2024-02-26T07:43:28;35.75;;;22.10;;
22660;SDS011;11497;52.222;21.246;2024-02-26T07:45:57;29.35;;;20.33;;
22660;SDS011;11497;52.222;21.246;2024-02-26T07:48:25;31.80;;;20.67;;
22660;SDS011;11497;52.222;21.246;2024-02-26T07:50:54;27.33;;;19.35;;
22660;SDS011;11497;52.222;21.246;2024-02-26T07:53:22;29.35;;;19.35;;
22660;SDS011;11497;52.222;21.246;2024-02-26T07:55:50;27.60;;;19.30;;
22660;SDS011;11497;52.222;21.246;2024-02-26T07:58:18;28.98;;;19.40;;
22660;SDS011;11497;52.222;21.246;2024-02-26T08:00:46;23.75;;;17.88;;
22660;SDS011;11497;52.222;21.246;2024-02-26T08:03:16;27.92;;;17.70;;
22660;SDS011;11497;52.222;21.246;2024-02-26T08:05:44;24.02;;;17.38;;
22660;SDS011;11497;52.222;21.246;2024-02-26T08:08:13;24.27;;;17.27;;
22660;SDS011;11497;52.222;21.246;2024-02-26T08:10:41;24.05;;;16.10;;
22660;SDS011;11497;52.222;21.246;2024-02-26T08:13:09;22.00;;;17.10;;
22660;SDS011;11497;52.222;21.246;2024-02-26T08:15:36;18.63;;;14.10;;
22660;SDS011;11497;52.222;21.246;2024-02-26T08:18:05;20.23;;;13.82;;
22660;SDS011;11497;52.222;21.246;2024-02-26T08:20:33;14.85;;;12.63;;
22660;SDS011;11497;52.222;21.246;2024-02-26T08:23:01;16.42;;;13.57;;
22660;SDS011;11497;52.222;21.246;2024-02-26T08:25:29;15.68;;;12.43;;
22660;SDS011;11497;52.222;21.246;2024-02-26T08:27:58;15.30;;;12.65;;
22660;SDS011;11497;52.222;21.246;2024-02-26T08:30:26;15.00;;;11.85;;
22660;SDS011;11497;52.222;21.246;2024-02-26T08:32:54;17.10;;;12.40;;
22660;SDS011;11497;52.222;21.246;2024-02-26T08:35:22;16.10;;;11.88;;
22660;SDS011;11497;52.222;21.246;2024-02-26T08:37:51;15.85;;;12.57;;
22660;SDS011;11497;52.222;21.246;2024-02-26T08:40:18;15.77;;;12.55;;
22660;SDS011;11497;52.222;21.246;2024-02-26T08:42:46;15.23;;;12.30;;
22660;SDS011;11497;52.222;21.246;2024-02-26T08:45:15;14.93;;;12.63;;
22660;SDS011;11497;52.222;21.246;2024-02-26T08:47:47;14.45;;;12.38;;
22660;SDS011;11497;52.222;21.246;2024-02-26T08:50:15;16.17;;;12.27;;
22660;SDS011;11497;52.222;21.246;2024-02-26T08:52:43;16.08;;;12.35;;
22660;SDS011;11497;52.222;21.246;2024-02-26T08:55:15;15.57;;;12.10;;
22660;SDS011;11497;52.222;21.246;2024-02-26T08:57:44;17.08;;;12.75;;
22660;SDS011;11497;52.222;21.246;2024-02-26T09:00:12;15.65;;;12.48;;
22660;SDS011;11497;52.222;21.246;2024-02-26T09:02:43;15.48;;;12.75;;
22660;SDS011;11497;52.222;21.246;2024-02-26T09:05:11;13.50;;;11.65;;
22660;SDS011;11497;52.222;21.246;2024-02-26T09:07:39;16.88;;;13.38;;
22660;SDS011;11497;52.222;21.246;2024-02-26T09:10:07;15.57;;;12.55;;
22660;SDS011;11497;52.222;21.246;2024-02-26T09:12:37;18.60;;;13.48;;
22660;SDS011;11497;52.222;21.246;2024-02-26T09:15:07;17.70;;;13.38;;
22660;SDS011;11497;52.222;21.246;2024-02-26T09:17:35;17.55;;;13.63;;
22660;SDS011;11497;52.222;21.246;2024-02-26T09:20:03;15.25;;;12.07;;
22660;SDS011;11497;52.222;21.246;2024-02-26T09:22:32;20.85;;;13.98;;
22660;SDS011;11497;52.222;21.246;2024-02-26T09:25:01;17.02;;;13.57;;
22660;SDS011;11497;52.222;21.246;2024-02-26T09:27:30;17.35;;;13.82;;
22660;SDS011;11497;52.222;21.246;2024-02-26T09:29:59;17.48;;;13.65;;
22660;SDS011;11497;52.222;21.246;2024-02-26T09:32:27;17.23;;;13.57;;
22660;SDS011;11497;52.222;21.246;2024-02-26T09:34:55;18.85;;;14.18;;
22660;SDS011;11497;52.222;21.246;2024-02-26T09:37:23;17.02;;;13.43;;
22660;SDS011;11497;52.222;21.246;2024-02-26T09:39:52;15.93;;;13.15;;
22660;SDS011;11497;52.222;21.246;2024-02-26T09:42:21;18.52;;;13.90;;
22660;SDS011;11497;52.222;21.246;2024-02-26T09:44:55;17.40;;;13.77;;
22660;SDS011;11497;52.222;21.246;2024-02-26T09:47:27;17.20;;;13.25;;
22660;SDS011;11497;52.222;21.246;2024-02-26T09:49:58;17.27;;;13.52;;
22660;SDS011;11497;52.222;21.246;2024-02-26T09:52:30;15.60;;;13.27;;
22660;SDS011;11497;52.222;21.246;2024-02-26T09:55:00;18.50;;;13.90;;
22660;SDS011;11497;52.222;21.246;2024-02-26T09:57:30;15.80;;;12.88;;
22660;SDS011;11497;52.222;21.246;2024-02-26T09:59:59;16.33;;;12.95;;
22660;SDS011;11497;52.222;21.246;2024-02-26T10:02:33;17.77;;;13.00;;
22660;SDS011;11497;52.222;21.246;2024-02-26T10:05:05;14.60;;;12.15;;
22660;SDS011;11497;52.222;21.246;2024-02-26T10:07:39;15.07;;;12.60;;
22660;SDS011;11497;52.222;21.246;2024-02-26T10:10:09;19.08;;;13.50;;
22660;SDS011;11497;52.222;21.246;2024-02-26T10:12:37;15.77;;;13.00;;
22660;SDS011;11497;52.222;21.246;2024-02-26T10:15:05;14.85;;;12.27;;
22660;SDS011;11497;52.222;21.246;2024-02-26T10:17:34;13.68;;;11.65;;
22660;SDS011;11497;52.222;21.246;2024-02-26T10:20:16;17.80;;;13.10;;
22660;SDS011;11497;52.222;21.246;2024-02-26T10:22:46;16.05;;;11.75;;
22660;SDS011;11497;52.222;21.246;2024-02-26T10:25:14;15.10;;;12.55;;
22660;SDS011;11497;52.222;21.246;2024-02-26T10:27:43;16.75;;;12.07;;
22660;SDS011;11497;52.222;21.246;2024-02-26T10:30:21;15.32;;;11.77;;
22660;SDS011;11497;52.222;21.246;2024-02-26T10:32:50;14.45;;;11.98;;
22660;SDS011;11497;52.222;21.246;2024-02-26T10:35:18;13.57;;;11.15;;
22660;SDS011;11497;52.222;21.246;2024-02-26T10:37:50;16.20;;;11.88;;
22660;SDS011;11497;52.222;21.246;2024-02-26T10:40:19;12.68;;;10.98;;
22660;SDS011;11497;52.222;21.246;2024-02-26T10:42:48;13.85;;;11.38;;
22660;SDS011;11497;52.222;21.246;2024-02-26T10:45:16;12.57;;;10.70;;
22660;SDS011;11497;52.222;21.246;2024-02-26T10:47:45;12.98;;;11.27;;
22660;SDS011;11497;52.222;21.246;2024-02-26T10:50:13;15.18;;;9.95;;
22660;SDS011;11497;52.222;21.246;2024-02-26T10:52:45;12.80;;;9.35;;
22660;SDS011;11497;52.222;21.246;2024-02-26T10:55:15;12.32;;;9.27;;
22660;SDS011;11497;52.222;21.246;2024-02-26T10:57:47;11.77;;;10.02;;
22660;SDS011;11497;52.222;21.246;2024-02-26T11:00:19;10.90;;;8.77;;
22660;SDS011;11497;52.222;21.246;2024-02-26T11:02:47;11.27;;;9.38;;
22660;SDS011;11497;52.222;21.246;2024-02-26T11:05:16;11.30;;;9.70;;
22660;SDS011;11497;52.222;21.246;2024-02-26T11:07:46;10.90;;;9.25;;
22660;SDS011;11497;52.222;21.246;2024-02-26T11:10:16;12.38;;;9.68;;
22660;SDS011;11497;52.222;21.246;2024-02-26T11:12:45;12.00;;;9.45;;
22660;SDS011;11497;52.222;21.246;2024-02-26T11:15:14;11.68;;;9.50;;
22660;SDS011;11497;52.222;21.246;2024-02-26T11:17:43;13.48;;;9.30;;
22660;SDS011;11497;52.222;21.246;2024-02-26T11:20:13;11.90;;;9.10;;
22660;SDS011;11497;52.222;21.246;2024-02-26T11:22:42;12.05;;;8.85;;
22660;SDS011;11497;52.222;21.246;2024-02-26T11:25:11;10.90;;;7.95;;
22660;SDS011;11497;52.222;21.246;2024-02-26T11:27:42;8.80;;;7.78;;
22660;SDS011;11497;52.222;21.246;2024-02-26T11:30:14;11.13;;;8.75;;
22660;SDS011;11497;52.222;21.246;2024-02-26T11:32:44;11.77;;;8.77;;
22660;SDS011;11497;52.222;21.246;2024-02-26T11:35:15;12.15;;;7.80;;
22660;SDS011;11497;52.222;21.246;2024-02-26T11:37:55;9.25;;;7.65;;
22660;SDS011;11497;52.222;21.246;2024-02-26T11:40:24;9.02;;;7.32;;
22660;SDS011;11497;52.222;21.246;2024-02-26T11:42:53;10.85;;;7.00;;
22660;SDS011;11497;52.222;21.246;2024-02-26T11:58:41;7.57;;;6.60;;
22660;SDS011;11497;52.222;21.246;2024-02-26T12:04:16;9.65;;;6.30;;
22660;SDS011;11497;52.222;21.246;2024-02-26T12:06:54;7.93;;;6.18;;
22660;SDS011;11497;52.222;21.246;2024-02-26T12:12:04;7.22;;;5.95;;
22660;SDS011;11497;52.222;21.246;2024-02-26T12:14:41;8.05;;;4.80;;
22660;SDS011;11497;52.222;21.246;2024-02-26T12:17:20;5.72;;;4.97;;
22660;SDS011;11497;52.222;21.246;2024-02-26T12:19:50;9.88;;;5.30;;
22660;SDS011;11497;52.222;21.246;2024-02-26T12:22:20;6.50;;;4.82;;
22660;SDS011;11497;52.222;21.246;2024-02-26T12:24:48;5.88;;;4.35;;
22660;SDS011;11497;52.222;21.246;2024-02-26T12:27:27;5.28;;;4.03;;
22660;SDS011;11497;52.222;21.246;2024-02-26T12:29:56;7.45;;;3.80;;
22660;SDS011;11497;52.222;21.246;2024-02-26T12:32:24;5.38;;;3.90;;
22660;SDS011;11497;52.222;21.246;2024-02-26T12:34:53;6.38;;;4.07;;
22660;SDS011;11497;52.222;21.246;2024-02-26T12:37:21;4.78;;;3.72;;
22660;SDS011;11497;52.222;21.246;2024-02-26T12:39:49;3.90;;;3.50;;
22660;SDS011;11497;52.222;21.246;2024-02-26T12:42:18;3.72;;;3.42;;
22660;SDS011;11497;52.222;21.246;2024-02-26T12:44:49;3.92;;;3.50;;
22660;SDS011;11497;52.222;21.246;2024-02-26T12:47:19;4.70;;;3.10;;
22660;SDS011;11497;52.222;21.246;2024-02-26T12:49:50;4.13;;;3.67;;
22660;SDS011;11497;52.222;21.246;2024-02-26T12:52:18;3.85;;;3.40;;
22660;SDS011;11497;52.222;21.246;2024-02-26T12:54:47;4.43;;;2.85;;
22660;SDS011;11497;52.222;21.246;2024-02-26T12:57:17;5.18;;;3.20;;
22660;SDS011;11497;52.222;21.246;2024-02-26T12:59:46;10.32;;;3.30;;
22660;SDS011;11497;52.222;21.246;2024-02-26T13:02:16;3.60;;;3.00;;
22660;SDS011;11497;52.222;21.246;2024-02-26T13:04:45;3.70;;;3.40;;
22660;SDS011;11497;52.222;21.246;2024-02-26T13:07:13;4.18;;;3.08;;
22660;SDS011;11497;52.222;21.246;2024-02-26T13:09:43;4.32;;;3.10;;
22660;SDS011;11497;52.222;21.246;2024-02-26T13:12:14;4.00;;;3.08;;
22660;SDS011;11497;52.222;21.246;2024-02-26T13:14:42;3.90;;;3.40;;
22660;SDS011;11497;52.222;21.246;2024-02-26T13:17:11;3.95;;;3.50;;
22660;SDS011;11497;52.222;21.246;2024-02-26T13:19:49;4.10;;;3.13;;
22660;SDS011;11497;52.222;21.246;2024-02-26T13:22:18;4.10;;;3.38;;
22660;SDS011;11497;52.222;21.246;2024-02-26T13:24:53;4.47;;;3.20;;
22660;SDS011;11497;52.222;21.246;2024-02-26T13:27:27;3.30;;;3.00;;
22660;SDS011;11497;52.222;21.246;2024-02-26T13:30:11;4.97;;;3.00;;
22660;SDS011;11497;52.222;21.246;2024-02-26T13:32:41;6.70;;;3.25;;
22660;SDS011;11497;52.222;21.246;2024-02-26T13:35:11;4.93;;;3.38;;
22660;SDS011;11497;52.222;21.246;2024-02-26T13:37:41;5.10;;;3.53;;
22660;SDS011;11497;52.222;21.246;2024-02-26T13:40:09;4.18;;;3.40;;
22660;SDS011;11497;52.222;21.246;2024-02-26T13:42:38;4.22;;;3.20;;
22660;SDS011;11497;52.222;21.246;2024-02-26T13:45:06;3.58;;;2.90;;
22660;SDS011;11497;52.222;21.246;2024-02-26T13:47:35;3.88;;;3.30;;
22660;SDS011;11497;52.222;21.246;2024-02-26T13:50:05;6.18;;;3.47;;
22660;SDS011;11497;52.222;21.246;2024-02-26T13:52:33;4.65;;;3.30;;
22660;SDS011;11497;52.222;21.246;2024-02-26T13:55:01;5.50;;;3.35;;
22660;SDS011;11497;52.222;21.246;2024-02-26T13:57:29;4.38;;;3.20;;
22660;SDS011;11497;52.222;21.246;2024-02-26T13:59:58;6.53;;;3.80;;
22660;SDS011;11497;52.222;21.246;2024-02-26T14:02:26;3.42;;;2.90;;
22660;SDS011;11497;52.222;21.246;2024-02-26T14:04:54;3.67;;;3.28;;
22660;SDS011;11497;52.222;21.246;2024-02-26T14:07:22;4.95;;;3.53;;
22660;SDS011;11497;52.222;21.246;2024-02-26T14:09:50;3.60;;;2.92;;
22660;SDS011;11497;52.222;21.246;2024-02-26T14:12:18;4.13;;;3.72;;
22660;SDS011;11497;52.222;21.246;2024-02-26T14:14:50;4.13;;;3.28;;
22660;SDS011;11497;52.222;21.246;2024-02-26T14:17:21;4.70;;;3.25;;
22660;SDS011;11497;52.222;21.246;2024-02-26T14:19:49;4.38;;;3.50;;
22660;SDS011;11497;52.222;21.246;2024-02-26T14:22:17;4.47;;;3.30;;
22660;SDS011;11497;52.222;21.246;2024-02-26T14:24:45;5.18;;;3.00;;
22660;SDS011;11497;52.222;21.246;2024-02-26T14:27:13;4.85;;;3.45;;
22660;SDS011;11497;52.222;21.246;2024-02-26T14:29:43;5.28;;;3.50;;
22660;SDS011;11497;52.222;21.246;2024-02-26T14:32:11;4.05;;;3.50;;
22660;SDS011;11497;52.222;21.246;2024-02-26T14:34:39;5.00;;;3.85;;
22660;SDS011;11497;52.222;21.246;2024-02-26T14:37:08;7.68;;;3.78;;
22660;SDS011;11497;52.222;21.246;2024-02-26T14:39:37;3.60;;;3.30;;
22660;SDS011;11497;52.222;21.246;2024-02-26T14:42:06;4.43;;;3.60;;